Time;durP1;ratioP1;P1;durP2;ratioP2;P2;SDS_P1;SDS_P2;PMS_P1;PMS_P2;Temp;Humidity;BMP_temperature;BMP_pressure;BME280_temperature;BME280_humidity;BME280_pressure;Samples;Min_cycle;Max_cycle;Signal;HPM_P1;HPM_P2
2023/08/13 00:02:21;;;;;;;15.65;3.53;;;;;;;19.14;100.00;101660.97;5050253;28;20025;-62
2023/08/13 00:04:46;;;;;;;12.88;2.92;;;;;;;19.03;100.00;101663.38;5049157;28;20064;-60
2023/08/13 00:07:11;;;;;;;15.85;2.90;;;;;;;18.99;100.00;101656.50;5049552;28;20027;-64
2023/08/13 00:09:37;;;;;;;16.33;3.13;;;;;;;19.00;100.00;101658.19;5049080;28;20479;-64
2023/08/13 00:12:03;;;;;;;13.45;2.95;;;;;;;18.98;100.00;101652.94;5048954;28;20044;-59
2023/08/13 00:14:28;;;;;;;15.90;3.30;;;;;;;18.90;100.00;101648.03;5064046;28;20050;-64
2023/08/13 00:16:54;;;;;;;18.40;3.20;;;;;;;18.88;100.00;101649.06;5069162;28;20473;-62
2023/08/13 00:19:19;;;;;;;12.82;2.67;;;;;;;18.91;100.00;101647.06;5069334;28;20451;-61
2023/08/13 00:21:45;;;;;;;13.77;3.33;;;;;;;18.86;100.00;101641.16;5069098;28;20024;-57
2023/08/13 00:24:10;;;;;;;18.88;3.47;;;;;;;18.73;100.00;101634.78;5054124;28;20029;-63
2023/08/13 00:26:36;;;;;;;9.98;2.75;;;;;;;18.71;100.00;101636.66;5054885;28;20032;-61
2023/08/13 00:29:03;;;;;;;17.92;2.90;;;;;;;18.72;100.00;101643.75;5068993;28;20103;-63
2023/08/13 00:31:29;;;;;;;15.05;3.15;;;;;;;18.68;100.00;101643.03;5067756;28;20143;-57
2023/08/13 00:33:54;;;;;;;15.35;2.97;;;;;;;18.71;100.00;101652.69;5068902;28;20565;-63
2023/08/13 00:36:19;;;;;;;19.83;3.00;;;;;;;18.64;100.00;101642.38;5055598;28;20045;-63
2023/08/13 00:38:45;;;;;;;13.02;3.97;;;;;;;18.66;100.00;101648.47;5068152;28;20028;-63
2023/08/13 00:41:10;;;;;;;18.73;3.10;;;;;;;18.55;100.00;101643.72;5069155;28;20060;-63
2023/08/13 00:43:36;;;;;;;14.75;2.85;;;;;;;18.62;100.00;101640.72;5067956;28;20066;-63
2023/08/13 00:46:03;;;;;;;17.25;2.83;;;;;;;18.72;100.00;101649.94;5067445;28;20028;-63
2023/08/13 00:48:29;;;;;;;9.35;2.78;;;;;;;18.66;100.00;101642.28;5060347;28;20025;-63
2023/08/13 00:50:55;;;;;;;13.88;2.70;;;;;;;18.59;100.00;101652.41;5062141;28;20016;-63
2023/08/13 00:53:20;;;;;;;13.82;2.72;;;;;;;18.61;100.00;101645.22;5056084;28;20048;-62
2023/08/13 00:55:46;;;;;;;14.80;2.80;;;;;;;18.55;100.00;101649.03;5066247;28;20024;-63
2023/08/13 00:58:11;;;;;;;17.90;3.22;;;;;;;18.50;100.00;101644.91;5068509;28;20099;-63
2023/08/13 01:00:38;;;;;;;12.90;2.75;;;;;;;18.48;100.00;101646.81;5067177;28;20028;-62
2023/08/13 01:03:03;;;;;;;11.88;2.83;;;;;;;18.42;100.00;101638.19;5068011;28;20017;-63
2023/08/13 01:05:38;;;;;;;14.75;3.78;;;;;;;18.34;100.00;101637.75;5068169;28;20533;-61
2023/08/13 01:08:23;;;;;;;13.95;3.03;;;;;;;18.34;100.00;101644.91;5055367;28;20159;-63
2023/08/13 01:10:57;;;;;;;12.68;2.67;;;;;;;18.31;100.00;101645.94;5041164;28;20040;-62
2023/08/13 01:13:30;;;;;;;13.15;2.75;;;;;;;18.36;100.00;101643.84;5066178;28;20056;-57
2023/08/13 01:15:56;;;;;;;13.60;3.30;;;;;;;18.28;100.00;101646.09;5067019;28;20086;-59
2023/08/13 01:18:22;;;;;;;10.60;2.72;;;;;;;18.25;100.00;101636.47;5068359;28;20405;-63
2023/08/13 01:20:47;;;;;;;14.98;3.30;;;;;;;18.22;100.00;101638.41;5067001;28;20025;-63
2023/08/13 01:23:12;;;;;;;14.18;3.13;;;;;;;18.16;100.00;101643.16;5067554;28;20066;-62
2023/08/13 01:25:38;;;;;;;14.25;3.05;;;;;;;18.14;100.00;101645.03;5067454;28;20100;-56
2023/08/13 01:28:26;;;;;;;14.90;3.47;;;;;;;18.16;100.00;101639.63;5063704;28;20170;-63
2023/08/13 01:30:53;;;;;;;13.93;3.58;;;;;;;18.17;100.00;101639.53;5047733;28;20078;-59
2023/08/13 01:33:29;;;;;;;9.55;2.90;;;;;;;18.19;100.00;101639.44;5046803;28;20017;-61
2023/08/13 01:35:59;;;;;;;12.20;3.10;;;;;;;18.17;100.00;101641.31;5047038;28;20064;-60
2023/08/13 01:38:25;;;;;;;13.18;3.40;;;;;;;18.16;100.00;101640.50;5046878;28;20116;-65
2023/08/13 01:40:51;;;;;;;13.13;3.53;;;;;;;18.22;100.00;101641.97;5046213;28;20025;-62
2023/08/13 01:43:17;;;;;;;13.98;3.47;;;;;;;18.18;100.00;101641.25;5046855;28;20522;-63
2023/08/13 01:45:42;;;;;;;14.13;3.72;;;;;;;18.16;100.00;101637.81;5045969;28;20086;-62
2023/08/13 01:48:08;;;;;;;11.48;3.47;;;;;;;18.15;100.00;101636.06;5047704;28;20021;-59
2023/08/13 01:50:37;;;;;;;11.68;3.05;;;;;;;18.13;100.00;101632.66;5048044;28;20033;-62
2023/08/13 01:53:02;;;;;;;18.25;3.28;;;;;;;18.09;100.00;101633.69;5047905;28;20025;-62
2023/08/13 01:55:27;;;;;;;13.50;3.88;;;;;;;18.13;100.00;101637.09;5047182;28;20039;-58
2023/08/13 01:57:53;;;;;;;17.15;3.75;;;;;;;18.08;100.00;101631.97;5046662;28;20100;-62
2023/08/13 02:00:18;;;;;;;12.57;3.15;;;;;;;18.08;100.00;101625.78;5045797;28;20029;-63
2023/08/13 02:02:44;;;;;;;19.08;3.95;;;;;;;18.05;100.00;101632.16;5046471;28;20053;-63
2023/08/13 02:05:09;;;;;;;14.43;3.45;;;;;;;18.01;100.00;101633.25;5047104;28;20024;-59
2023/08/13 02:07:34;;;;;;;15.00;3.50;;;;;;;18.06;100.00;101639.19;5047047;28;20059;-63
2023/08/13 02:10:00;;;;;;;11.23;3.33;;;;;;;18.06;100.00;101636.53;5047659;28;20035;-63
2023/08/13 02:12:25;;;;;;;16.13;3.13;;;;;;;18.06;100.00;101629.41;5046492;28;20056;-63
2023/08/13 02:14:50;;;;;;;11.85;3.35;;;;;;;18.08;100.00;101629.31;5046050;28;20028;-57
2023/08/13 02:17:16;;;;;;;12.02;3.10;;;;;;;18.08;100.00;101626.66;5047173;28;20045;-63
2023/08/13 02:19:41;;;;;;;11.52;2.97;;;;;;;18.14;100.00;101623.69;5046082;28;20036;-63
2023/08/13 02:22:07;;;;;;;13.13;2.85;;;;;;;18.22;100.00;101630.41;5047437;28;20029;-62
2023/08/13 02:24:33;;;;;;;20.17;3.75;;;;;;;18.26;100.00;101630.16;5046507;28;20025;-63
2023/08/13 02:26:58;;;;;;;14.35;2.78;;;;;;;18.31;100.00;101619.25;5047076;28;20021;-63
2023/08/13 02:29:24;;;;;;;17.33;3.72;;;;;;;18.18;100.00;101630.56;5045756;28;20036;-61
2023/08/13 02:31:49;;;;;;;16.95;2.60;;;;;;;18.25;100.00;101630.25;5047759;28;20052;-62
2023/08/13 02:34:14;;;;;;;14.60;3.17;;;;;;;18.29;100.00;101629.13;5047156;28;20036;-61
2023/08/13 02:36:40;;;;;;;18.30;3.17;;;;;;;18.43;100.00;101629.22;5047045;28;20029;-62
2023/08/13 02:39:05;;;;;;;12.23;3.22;;;;;;;18.38;100.00;101625.09;5050343;28;20075;-64
2023/08/13 02:41:31;;;;;;;16.98;3.33;;;;;;;18.52;100.00;101627.03;5068304;28;20020;-60
2023/08/13 02:43:56;;;;;;;14.15;2.90;;;;;;;18.50;100.00;101629.78;5070906;28;20475;-55
2023/08/13 02:46:24;;;;;;;19.38;3.08;;;;;;;18.54;100.00;101617.97;5071187;28;20070;-60
2023/08/13 02:48:53;;;;;;;15.98;3.00;;;;;;;18.60;100.00;101616.78;5054620;28;20144;-61
2023/08/13 02:51:19;;;;;;;12.30;3.08;;;;;;;18.59;100.00;101619.53;5051496;28;20021;-61
2023/08/13 02:53:44;;;;;;;11.45;2.70;;;;;;;18.48;100.00;101630.81;5050696;28;20167;-63
2023/08/13 02:56:10;;;;;;;9.75;2.83;;;;;;;18.55;100.00;101617.03;5051017;28;20483;-62
2023/08/13 02:58:35;;;;;;;16.70;3.10;;;;;;;18.52;100.00;101619.88;5050721;28;20379;-60
2023/08/13 03:01:01;;;;;;;13.38;3.35;;;;;;;18.46;100.00;101622.03;5048103;28;20029;-62
2023/08/13 03:03:26;;;;;;;13.05;3.35;;;;;;;18.29;100.00;101616.66;5050562;28;20032;-63
2023/08/13 03:05:51;;;;;;;13.20;2.90;;;;;;;18.29;100.00;101615.81;5033006;28;20029;-63
2023/08/13 03:08:17;;;;;;;12.75;2.97;;;;;;;18.21;100.00;101608.22;5051006;28;20032;-63
2023/08/13 03:10:42;;;;;;;12.05;2.70;;;;;;;18.13;100.00;101619.31;5050195;28;20083;-63
2023/08/13 03:13:08;;;;;;;15.25;2.75;;;;;;;18.04;100.00;101622.44;5050885;28;20426;-63
2023/08/13 03:15:33;;;;;;;9.85;2.67;;;;;;;18.01;100.00;101612.81;5049152;28;20021;-63
2023/08/13 03:17:58;;;;;;;16.13;2.72;;;;;;;18.00;100.00;101616.38;5050392;28;20033;-59
2023/08/13 03:20:24;;;;;;;13.20;2.80;;;;;;;17.97;100.00;101615.72;5049926;28;20025;-59
2023/08/13 03:22:49;;;;;;;9.32;2.58;;;;;;;17.98;100.00;101618.28;5051062;28;20025;-60
2023/08/13 03:25:14;;;;;;;10.93;2.55;;;;;;;17.96;100.00;101620.16;5050109;28;20044;-60
2023/08/13 03:27:40;;;;;;;11.98;2.88;;;;;;;18.00;100.00;101610.22;5050083;28;20068;-60
2023/08/13 03:30:07;;;;;;;15.38;2.58;;;;;;;17.98;100.00;101614.75;5048499;28;20022;-62
2023/08/13 03:32:32;;;;;;;17.13;2.90;;;;;;;17.99;100.00;101611.13;5049408;28;20033;-61
2023/08/13 03:34:58;;;;;;;12.98;3.00;;;;;;;17.96;100.00;101611.28;5050138;28;20029;-62
2023/08/13 03:37:23;;;;;;;11.27;2.78;;;;;;;17.94;100.00;101612.25;5049800;28;20078;-62
2023/08/13 03:39:48;;;;;;;12.80;2.85;;;;;;;17.94;100.00;101609.59;5050700;28;20029;-63
2023/08/13 03:42:14;;;;;;;9.05;2.80;;;;;;;17.91;100.00;101611.56;5049504;28;20032;-61
2023/08/13 03:44:40;;;;;;;12.43;2.83;;;;;;;17.83;100.00;101603.97;5049263;28;20025;-60
2023/08/13 03:47:06;;;;;;;12.68;2.70;;;;;;;17.76;100.00;101602.56;5049480;28;20123;-64
2023/08/13 03:49:31;;;;;;;14.57;3.08;;;;;;;17.77;100.00;101614.94;5048310;28;20100;-62
2023/08/13 03:51:57;;;;;;;11.43;2.40;;;;;;;17.73;100.00;101611.56;5047914;28;20098;-62
2023/08/13 03:54:22;;;;;;;13.88;2.72;;;;;;;17.70;100.00;101616.22;5050078;28;20033;-57
2023/08/13 03:56:47;;;;;;;12.38;2.90;;;;;;;17.65;100.00;101609.31;5048960;28;20033;-63
2023/08/13 03:59:13;;;;;;;10.50;2.92;;;;;;;17.62;100.00;101612.16;5048758;28;20036;-63
2023/08/13 04:01:38;;;;;;;11.55;3.30;;;;;;;17.63;100.00;101619.19;5048364;28;20486;-63
2023/08/13 04:04:04;;;;;;;14.85;3.25;;;;;;;17.58;100.00;101623.03;5064255;28;20364;-63
2023/08/13 04:06:29;;;;;;;15.30;2.72;;;;;;;17.57;100.00;101619.50;5056551;28;20025;-61
2023/08/13 04:08:54;;;;;;;10.63;2.70;;;;;;;17.52;100.00;101618.88;5052376;28;20074;-60
2023/08/13 04:11:20;;;;;;;11.77;3.17;;;;;;;17.49;100.00;101635.03;5049392;28;20079;-60
2023/08/13 04:13:45;;;;;;;12.80;2.75;;;;;;;17.49;100.00;101630.53;5048341;28;20039;-59
2023/08/13 04:16:10;;;;;;;15.50;3.22;;;;;;;17.47;100.00;101631.56;5046837;28;20041;-62
2023/08/13 04:18:36;;;;;;;12.18;3.38;;;;;;;17.43;100.00;101623.72;5049822;28;20108;-61
2023/08/13 04:21:01;;;;;;;11.40;2.72;;;;;;;17.45;100.00;101625.47;5046431;28;20394;-57
2023/08/13 04:23:26;;;;;;;15.80;3.45;;;;;;;17.41;100.00;101635.41;5047176;28;20059;-63
2023/08/13 04:25:52;;;;;;;14.63;2.80;;;;;;;17.46;100.00;101638.69;5049772;28;20032;-58
2023/08/13 04:28:17;;;;;;;14.93;3.13;;;;;;;17.37;100.00;101633.84;5068352;28;20096;-64
2023/08/13 04:30:42;;;;;;;9.85;2.85;;;;;;;17.47;100.00;101636.88;5066311;28;20532;-63
2023/08/13 04:33:08;;;;;;;13.77;2.85;;;;;;;17.55;100.00;101637.38;5067923;28;20024;-63
2023/08/13 04:35:33;;;;;;;13.93;2.75;;;;;;;17.62;100.00;101632.59;5066118;28;20021;-63
2023/08/13 04:37:59;;;;;;;13.45;3.30;;;;;;;17.66;100.00;101639.47;5047728;28;20112;-63
2023/08/13 04:40:24;;;;;;;12.93;2.80;;;;;;;17.62;100.00;101644.13;5046935;28;20044;-62
2023/08/13 04:42:49;;;;;;;19.50;3.40;;;;;;;17.70;100.00;101641.03;5046487;28;20025;-61
2023/08/13 04:45:15;;;;;;;15.10;2.90;;;;;;;17.71;100.00;101648.13;5045950;28;20029;-61
2023/08/13 04:47:41;;;;;;;14.18;3.60;;;;;;;17.67;100.00;101651.88;5046584;28;20150;-62
2023/08/13 04:50:08;;;;;;;13.23;2.95;;;;;;;17.65;100.00;101643.09;5047977;28;20025;-59
2023/08/13 04:52:33;;;;;;;13.95;3.10;;;;;;;17.71;100.00;101650.78;5059981;28;20530;-62
2023/08/13 04:54:58;;;;;;;16.55;3.47;;;;;;;17.74;100.00;101652.41;5067729;28;20048;-56
2023/08/13 04:57:24;;;;;;;15.77;3.30;;;;;;;17.72;100.00;101648.94;5045634;28;20025;-63
2023/08/13 04:59:49;;;;;;;14.93;2.88;;;;;;;17.74;100.00;101655.09;5045646;28;20017;-64
2023/08/13 05:02:15;;;;;;;15.27;3.17;;;;;;;17.76;100.00;101650.53;5046756;28;20505;-59
2023/08/13 05:04:40;;;;;;;14.48;3.28;;;;;;;17.73;100.00;101642.72;5046426;28;20045;-62
2023/08/13 05:07:06;;;;;;;14.82;2.65;;;;;;;17.71;100.00;101650.78;5046959;28;20480;-63
2023/08/13 05:09:31;;;;;;;11.73;2.88;;;;;;;17.72;100.00;101648.94;5047725;28;20380;-62
2023/08/13 05:11:57;;;;;;;13.07;2.60;;;;;;;17.71;100.00;101657.91;5048215;28;20497;-60
2023/08/13 05:14:22;;;;;;;12.23;2.80;;;;;;;17.65;100.00;101648.41;5045147;28;20460;-60
2023/08/13 05:16:48;;;;;;;12.27;2.95;;;;;;;17.66;100.00;101645.69;5043302;28;20052;-59
2023/08/13 05:19:13;;;;;;;15.10;3.20;;;;;;;17.68;100.00;101642.94;5045866;28;20021;-61
2023/08/13 05:21:38;;;;;;;12.50;2.97;;;;;;;17.67;100.00;101642.06;5052796;28;20032;-61
2023/08/13 05:24:04;;;;;;;14.13;3.33;;;;;;;17.64;100.00;101631.56;5046353;28;20021;-63
2023/08/13 05:26:30;;;;;;;20.52;3.42;;;;;;;17.68;100.00;101635.81;5049370;28;20032;-62
2023/08/13 05:28:55;;;;;;;18.17;3.08;;;;;;;17.71;100.00;101637.44;5046256;28;20025;-65
2023/08/13 05:31:20;;;;;;;14.90;2.70;;;;;;;17.74;100.00;101631.09;5055824;28;20078;-63
2023/08/13 05:33:46;;;;;;;14.43;2.67;;;;;;;17.70;100.00;101637.53;5049408;28;20017;-63
2023/08/13 05:36:11;;;;;;;18.00;2.78;;;;;;;17.72;100.00;101636.50;5045041;28;20116;-61
2023/08/13 05:38:36;;;;;;;14.55;2.80;;;;;;;17.85;100.00;101638.53;5046159;28;20013;-64
2023/08/13 05:41:02;;;;;;;13.45;2.97;;;;;;;17.77;100.00;101646.94;5045312;28;20461;-64
2023/08/13 05:43:27;;;;;;;12.57;2.30;;;;;;;17.90;100.00;101641.81;5045405;28;20017;-63
2023/08/13 05:45:52;;;;;;;16.40;3.38;;;;;;;18.08;100.00;101647.97;5043585;28;20501;-61
2023/08/13 05:48:18;;;;;;;22.85;3.60;;;;;;;18.24;100.00;101641.88;5046408;28;20056;-65
2023/08/13 05:50:43;;;;;;;13.80;2.80;;;;;;;18.48;100.00;101646.81;5044881;28;20143;-64
2023/08/13 05:53:09;;;;;;;11.10;2.20;;;;;;;18.66;100.00;101647.63;5046492;28;20017;-65
2023/08/13 05:55:34;;;;;;;15.18;2.78;;;;;;;18.73;100.00;101641.00;5046830;28;20021;-63
2023/08/13 05:58:00;;;;;;;9.20;2.40;;;;;;;18.80;100.00;101644.16;5048026;28;20036;-66
2023/08/13 06:00:25;;;;;;;13.55;2.97;;;;;;;18.81;100.00;101643.22;5048607;28;20590;-65
2023/08/13 06:02:50;;;;;;;16.23;3.15;;;;;;;18.90;100.00;101653.38;5066088;28;20031;-64
2023/08/13 06:05:16;;;;;;;14.20;3.05;;;;;;;18.93;100.00;101657.66;5045643;28;20070;-64
2023/08/13 06:07:41;;;;;;;13.38;2.92;;;;;;;19.14;100.00;101658.28;5047303;28;20084;-65
2023/08/13 06:10:07;;;;;;;16.50;3.17;;;;;;;19.15;100.00;101654.66;5046956;28;20017;-64
2023/08/13 06:12:33;;;;;;;11.40;2.97;;;;;;;19.28;100.00;101660.19;5045299;28;20056;-60
2023/08/13 06:14:58;;;;;;;15.55;3.13;;;;;;;19.23;100.00;101658.72;5047850;28;20029;-61
2023/08/13 06:17:24;;;;;;;10.02;2.45;;;;;;;19.25;100.00;101647.00;5046918;28;20436;-62
2023/08/13 06:19:49;;;;;;;15.48;2.90;;;;;;;19.23;100.00;101656.91;5047887;28;20037;-64
2023/08/13 06:22:15;;;;;;;12.00;2.15;;;;;;;19.18;100.00;101657.16;5048167;28;20028;-61
2023/08/13 06:24:40;;;;;;;9.13;2.40;;;;;;;19.17;100.00;101651.91;5047146;28;20029;-63
2023/08/13 06:27:06;;;;;;;13.63;2.92;;;;;;;19.17;100.00;101654.56;5046760;28;20021;-57
2023/08/13 06:29:31;;;;;;;13.70;2.80;;;;;;;19.22;100.00;101657.00;5046582;28;20551;-65
2023/08/13 06:31:57;;;;;;;16.85;3.15;;;;;;;19.19;100.00;101650.91;5048511;28;20053;-64
2023/08/13 06:34:22;;;;;;;11.02;2.92;;;;;;;19.26;100.00;101645.19;5048224;28;20040;-59
2023/08/13 06:36:47;;;;;;;12.75;2.45;;;;;;;19.30;100.00;101650.25;5047873;28;20532;-65
2023/08/13 06:39:13;;;;;;;11.63;3.08;;;;;;;19.40;100.00;101645.25;5046573;28;20044;-64
2023/08/13 06:41:38;;;;;;;8.93;2.50;;;;;;;19.49;100.00;101648.31;5046859;28;20025;-64
2023/08/13 06:44:04;;;;;;;13.52;2.58;;;;;;;19.50;100.00;101656.25;5045842;28;20044;-54
2023/08/13 06:46:30;;;;;;;13.55;2.45;;;;;;;19.51;100.00;101657.94;5047271;28;20060;-62
2023/08/13 06:48:55;;;;;;;15.85;2.75;;;;;;;19.76;100.00;101656.50;5047044;28;20052;-64
2023/08/13 06:51:20;;;;;;;9.52;2.45;;;;;;;19.95;100.00;101650.91;5047502;28;20456;-58
2023/08/13 06:53:46;;;;;;;12.57;2.88;;;;;;;20.02;100.00;101655.91;5045692;28;20123;-63
2023/08/13 06:56:11;;;;;;;13.00;2.70;;;;;;;20.32;100.00;101652.28;5046888;28;20169;-65
2023/08/13 06:58:36;;;;;;;8.90;2.45;;;;;;;20.53;100.00;101659.94;5045380;28;20032;-66
2023/08/13 07:01:03;;;;;;;9.52;2.95;;;;;;;20.66;100.00;101660.88;5047157;28;20563;-60
2023/08/13 07:03:28;;;;;;;9.60;2.03;;;;;;;21.05;100.00;101646.81;5046135;28;20728;-61
2023/08/13 07:05:53;;;;;;;9.93;2.60;;;;;;;21.34;100.00;101644.00;5047281;28;20104;-63
2023/08/13 07:08:19;;;;;;;14.55;2.55;;;;;;;21.24;100.00;101653.63;5045506;28;20479;-60
2023/08/13 07:10:44;;;;;;;8.45;2.30;;;;;;;21.24;100.00;101650.94;5046192;28;20017;-62
2023/08/13 07:13:09;;;;;;;8.07;2.08;;;;;;;21.26;100.00;101652.59;5046916;28;20025;-63
2023/08/13 07:15:35;;;;;;;9.55;2.55;;;;;;;21.35;100.00;101651.09;5043989;28;20017;-62
2023/08/13 07:18:00;;;;;;;7.50;2.30;;;;;;;21.43;100.00;101648.75;5046513;28;20049;-60
2023/08/13 07:20:26;;;;;;;9.57;2.13;;;;;;;21.40;100.00;101648.97;5044341;28;20049;-61
2023/08/13 07:22:52;;;;;;;5.20;1.80;;;;;;;21.45;100.00;101652.19;5047083;28;20025;-63
2023/08/13 07:25:17;;;;;;;8.32;1.98;;;;;;;21.41;100.00;101656.06;5049205;28;20144;-63
2023/08/13 07:27:43;;;;;;;10.30;2.00;;;;;;;21.44;100.00;101653.19;5048939;28;20120;-62
2023/08/13 07:30:10;;;;;;;6.05;1.98;;;;;;;21.44;100.00;101658.53;5049879;28;20107;-63
2023/08/13 07:32:37;;;;;;;8.50;2.42;;;;;;;21.52;100.00;101663.34;5047990;28;20025;-62
2023/08/13 07:35:02;;;;;;;8.07;2.22;;;;;;;21.62;100.00;101654.69;5048756;28;20553;-65
2023/08/13 07:37:28;;;;;;;12.75;2.25;;;;;;;21.58;100.00;101657.59;5047908;28;20329;-62
2023/08/13 07:39:54;;;;;;;7.03;1.73;;;;;;;21.73;100.00;101662.00;5047328;28;20029;-63
2023/08/13 07:42:19;;;;;;;6.97;1.75;;;;;;;21.77;100.00;101663.53;5047767;28;20033;-63
2023/08/13 07:44:45;;;;;;;6.93;2.33;;;;;;;22.00;100.00;101664.63;5046582;28;20029;-63
2023/08/13 07:47:10;;;;;;;7.80;2.60;;;;;;;22.25;100.00;101664.72;5047758;28;20446;-60
2023/08/13 07:49:36;;;;;;;9.60;2.05;;;;;;;22.37;100.00;101652.25;5047666;28;20568;-61
2023/08/13 07:52:01;;;;;;;6.35;1.90;;;;;;;22.37;100.00;101658.50;5047259;28;20029;-60
2023/08/13 07:54:28;;;;;;;6.88;1.75;;;;;;;22.18;100.00;101661.59;5047504;28;20023;-59
2023/08/13 07:56:53;;;;;;;6.80;1.80;;;;;;;21.93;100.00;101669.56;5046164;28;20048;-59
2023/08/13 07:59:19;;;;;;;7.75;2.17;;;;;;;22.15;100.00;101660.00;5047294;28;20045;-61
2023/08/13 08:01:44;;;;;;;6.15;1.75;;;;;;;22.19;100.00;101656.13;5047315;28;20025;-63
2023/08/13 08:04:10;;;;;;;9.77;1.83;;;;;;;22.66;100.00;101662.78;5048059;28;20431;-63
2023/08/13 08:06:35;;;;;;;5.90;1.85;;;;;;;22.66;100.00;101662.78;5046816;28;20028;-64
2023/08/13 08:09:01;;;;;;;6.53;1.60;;;;;;;22.64;100.00;101668.25;5047248;28;20025;-62
2023/08/13 08:11:26;;;;;;;8.40;1.73;;;;;;;22.63;100.00;101671.88;5046353;28;20029;-62
2023/08/13 08:13:52;;;;;;;7.75;1.85;;;;;;;22.76;100.00;101674.56;5047506;28;20407;-60
2023/08/13 08:16:17;;;;;;;9.18;1.90;;;;;;;22.79;100.00;101673.47;5045127;28;20499;-61
2023/08/13 08:18:42;;;;;;;7.53;1.55;;;;;;;23.03;100.00;101675.31;5047577;28;20021;-59
2023/08/13 08:21:08;;;;;;;7.25;1.73;;;;;;;23.14;100.00;101671.84;5045916;28;20105;-65
2023/08/13 08:23:33;;;;;;;6.38;1.58;;;;;;;23.13;100.00;101670.97;5047745;28;20049;-61
2023/08/13 08:25:59;;;;;;;7.75;1.48;;;;;;;22.96;100.00;101666.84;5046717;28;20025;-63
2023/08/13 08:28:25;;;;;;;3.63;1.30;;;;;;;22.83;100.00;101681.19;5046329;28;20017;-60
2023/08/13 08:30:51;;;;;;;6.20;1.70;;;;;;;22.78;100.00;101677.13;5047118;28;20100;-60
2023/08/13 08:33:16;;;;;;;6.82;1.40;;;;;;;22.67;100.00;101662.63;5046156;28;20029;-59
2023/08/13 08:35:41;;;;;;;6.93;1.60;;;;;;;22.81;100.00;101671.50;5046561;28;20028;-60
2023/08/13 08:38:07;;;;;;;4.88;1.60;;;;;;;22.86;100.00;101663.97;5045041;28;20467;-63
2023/08/13 08:40:32;;;;;;;3.83;1.23;;;;;;;22.98;100.00;101664.91;5043999;28;20112;-62
2023/08/13 08:42:58;;;;;;;6.82;1.67;;;;;;;23.00;99.36;101662.97;5045970;28;20017;-60
2023/08/13 08:45:24;;;;;;;7.18;1.40;;;;;;;22.93;97.99;101659.00;5046234;28;20017;-60
2023/08/13 08:47:50;;;;;;;3.65;1.08;;;;;;;22.83;98.82;101670.44;5045983;28;20033;-62
2023/08/13 08:50:16;;;;;;;7.32;1.40;;;;;;;23.05;97.70;101659.91;5045051;28;20021;-59
2023/08/13 08:52:42;;;;;;;4.72;1.35;;;;;;;23.09;98.40;101666.81;5047834;28;20029;-62
2023/08/13 08:55:09;;;;;;;5.95;1.60;;;;;;;22.95;99.63;101665.13;5045948;28;20017;-62
2023/08/13 08:57:35;;;;;;;4.70;1.20;;;;;;;22.85;99.41;101662.28;5044974;28;20051;-61
2023/08/13 09:00:00;;;;;;;4.18;1.17;;;;;;;22.72;99.56;101657.78;5045884;28;20049;-62
2023/08/13 09:02:26;;;;;;;4.22;1.30;;;;;;;22.77;99.93;101664.66;5061863;28;20028;-62
2023/08/13 09:04:51;;;;;;;6.85;1.55;;;;;;;22.58;100.00;101657.94;5046997;28;20084;-61
2023/08/13 09:07:17;;;;;;;7.68;1.38;;;;;;;22.64;100.00;101656.63;5044707;28;20032;-61
2023/08/13 09:09:44;;;;;;;9.60;2.40;;;;;;;22.58;100.00;101658.78;5053490;28;20124;-56
2023/08/13 09:12:09;;;;;;;8.60;1.88;;;;;;;22.84;100.00;101653.34;5045770;28;20052;-57
2023/08/13 09:14:35;;;;;;;4.85;1.40;;;;;;;23.04;100.00;101658.22;5045940;28;20052;-63
2023/08/13 09:17:01;;;;;;;7.80;1.88;;;;;;;23.03;99.62;101656.50;5047490;28;20079;-60
2023/08/13 09:19:27;;;;;;;5.60;1.55;;;;;;;22.91;100.00;101656.44;5045315;28;20029;-61
2023/08/13 09:22:00;;;;;;;7.53;2.10;;;;;;;22.84;100.00;101656.03;5046760;28;20090;-62
2023/08/13 09:24:36;;;;;;;8.82;1.85;;;;;;;22.97;100.00;101653.28;5026147;28;20101;-62
2023/08/13 09:27:04;;;;;;;4.43;1.40;;;;;;;23.07;100.00;101649.91;5035700;28;20411;-62
2023/08/13 09:29:30;;;;;;;8.43;1.40;;;;;;;23.21;100.00;101644.34;5046336;28;20021;-60
2023/08/13 09:31:56;;;;;;;8.90;1.95;;;;;;;23.50;98.60;101629.69;5048464;28;20028;-61
2023/08/13 09:34:21;;;;;;;5.13;1.67;;;;;;;23.60;96.57;101635.25;5048239;28;20025;-66
2023/08/13 09:36:47;;;;;;;4.53;1.38;;;;;;;23.79;95.90;101631.09;5044343;28;20033;-61
2023/08/13 09:39:12;;;;;;;7.07;1.85;;;;;;;23.73;97.01;101629.75;5047315;28;20056;-62
2023/08/13 09:41:38;;;;;;;7.70;1.50;;;;;;;23.95;95.69;101626.25;5045707;28;20024;-62
2023/08/13 09:44:09;;;;;;;7.30;1.50;;;;;;;24.19;93.04;101622.59;5044811;28;20432;-62
2023/08/13 09:46:35;;;;;;;6.47;1.55;;;;;;;24.40;92.52;101619.16;5047794;28;20028;-60
2023/08/13 09:49:03;;;;;;;5.85;1.77;;;;;;;24.30;92.76;101616.38;5045476;28;20028;-59
2023/08/13 09:51:32;;;;;;;7.53;1.73;;;;;;;24.44;92.71;101614.41;5045814;28;20017;-60
2023/08/13 09:54:10;;;;;;;6.38;1.60;;;;;;;24.44;91.87;101617.09;5045609;28;20412;-63
2023/08/13 09:56:37;;;;;;;6.68;1.58;;;;;;;24.77;90.42;101617.97;5043335;28;20502;-63
2023/08/13 09:59:03;;;;;;;3.80;1.42;;;;;;;24.57;89.21;101625.00;5043963;28;20017;-60
2023/08/13 10:01:28;;;;;;;7.82;1.60;;;;;;;24.52;87.99;101622.69;5045172;28;20584;-62
2023/08/13 10:03:54;;;;;;;3.65;1.48;;;;;;;24.27;91.82;101626.50;5044136;28;20357;-69
2023/08/13 10:06:21;;;;;;;4.32;1.35;;;;;;;24.37;89.12;101614.03;5046940;28;20063;-59
2023/08/13 10:08:47;;;;;;;3.63;1.15;;;;;;;24.30;88.15;101616.38;5045894;28;20025;-58
2023/08/13 10:11:13;;;;;;;5.07;1.13;;;;;;;24.30;89.10;101612.81;5043310;28;20468;-59
2023/08/13 10:13:38;;;;;;;4.55;1.50;;;;;;;24.48;88.85;101618.53;5044770;28;20032;-60
2023/08/13 10:16:05;;;;;;;5.30;1.30;;;;;;;24.56;89.28;101609.84;5045570;28;20147;-59
2023/08/13 10:18:31;;;;;;;4.63;1.52;;;;;;;24.66;87.72;101624.28;5043242;28;20032;-63
2023/08/13 10:20:57;;;;;;;4.05;1.20;;;;;;;24.35;88.22;101624.91;5045523;28;20025;-60
2023/08/13 10:23:22;;;;;;;4.75;1.33;;;;;;;24.21;89.05;101634.13;5045393;28;20572;-59
2023/08/13 10:25:52;;;;;;;2.95;1.17;;;;;;;23.91;90.39;101627.47;5043574;28;20025;-64
2023/08/13 10:28:21;;;;;;;3.85;1.10;;;;;;;24.01;91.77;101615.94;5052829;28;20052;-62
2023/08/13 10:30:47;;;;;;;5.18;1.40;;;;;;;24.17;92.10;101621.88;5044671;28;20044;-59
2023/08/13 10:33:13;;;;;;;5.70;1.23;;;;;;;24.10;92.90;101613.41;5045944;28;20025;-63
2023/08/13 10:35:39;;;;;;;4.38;1.33;;;;;;;24.32;91.73;101618.94;5046481;28;20017;-62
2023/08/13 10:38:05;;;;;;;4.60;1.35;;;;;;;24.25;89.66;101617.69;5051552;28;20370;-62
2023/08/13 10:40:31;;;;;;;5.30;1.15;;;;;;;24.34;89.63;101617.81;5050269;28;20119;-61
2023/08/13 10:42:58;;;;;;;7.63;1.67;;;;;;;24.18;90.05;101607.44;5045512;28;20048;-61
2023/08/13 10:45:37;;;;;;;3.95;1.10;;;;;;;24.13;89.06;101617.72;5042940;28;20071;-61
2023/08/13 10:48:05;;;;;;;6.10;1.48;;;;;;;24.18;89.29;101610.13;5046518;28;20061;-61
2023/08/13 10:50:41;;;;;;;4.63;1.30;;;;;;;24.52;87.90;101616.44;5044864;28;20033;-60
2023/08/13 10:53:11;;;;;;;4.90;1.40;;;;;;;24.57;86.70;101611.53;5042127;28;20362;-62
2023/08/13 10:55:39;;;;;;;4.95;1.50;;;;;;;24.49;88.39;101612.16;5048054;28;20029;-62
2023/08/13 10:58:05;;;;;;;5.55;1.48;;;;;;;24.56;87.24;101607.16;5044167;28;20029;-62
2023/08/13 11:00:40;;;;;;;3.42;1.25;;;;;;;24.34;88.26;101614.25;5047765;28;21245;-61
2023/08/13 11:03:23;;;;;;;3.85;1.52;;;;;;;24.33;88.00;101599.09;5055264;28;20499;-62
2023/08/13 11:05:49;;;;;;;2.83;1.10;;;;;;;24.24;89.30;101611.47;5048232;28;20511;-61
2023/08/13 11:08:23;;;;;;;4.80;1.35;;;;;;;24.10;91.14;101615.22;5048993;28;20086;-61
2023/08/13 11:10:50;;;;;;;2.53;1.70;;;;;;;24.03;91.66;101614.00;5049424;28;20071;-62